createdAt,value
2023-04-20T00:09:30.900Z,98316.84
2023-04-20T00:11:57.538Z,98313.16
2023-04-20T00:14:24.498Z,98312.34
2023-04-20T00:16:51.145Z,98306.75
2023-04-20T00:19:18.126Z,98304.66
2023-04-20T00:21:45.566Z,98300.41
2023-04-20T00:24:12.385Z,98302.09
2023-04-20T00:26:39.163Z,98297.88
2023-04-20T00:31:39.050Z,98295.53
2023-04-20T00:34:05.913Z,98282.66
2023-04-20T00:36:32.602Z,98289.69
2023-04-20T00:38:59.382Z,98275.53
2023-04-20T00:41:25.974Z,98276.66
2023-04-20T00:43:53.779Z,98272.69
2023-04-20T00:46:21.897Z,98268.84
2023-04-20T00:48:52.041Z,98269.78
2023-04-20T00:51:19.770Z,98265.44
2023-04-20T00:53:46.528Z,98256.56
2023-04-20T00:56:14.753Z,98255.94
2023-04-20T00:58:43.806Z,98256.34
2023-04-20T01:01:11.388Z,98249.59
2023-04-20T01:03:39.979Z,98260.22
2023-04-20T01:06:08.105Z,98253.38
2023-04-20T01:08:34.799Z,98248.34
2023-04-20T01:11:01.473Z,98244.72
2023-04-20T01:13:28.091Z,98235.72
2023-04-20T01:16:00.511Z,98229.59
2023-04-20T01:18:27.955Z,98227.97
2023-04-20T01:23:29.468Z,98214.34
2023-04-20T01:25:56.101Z,98223.94
2023-04-20T01:28:23.108Z,98200.84
2023-04-20T01:33:30.577Z,98205.59
2023-04-20T01:35:57.240Z,98196.09
2023-04-20T01:38:25.156Z,98197.63
2023-04-20T01:40:52.767Z,98193.38
2023-04-20T01:43:19.848Z,98189.75
2023-04-20T01:48:19.999Z,98177.59
2023-04-20T01:50:46.648Z,98185.94
2023-04-20T01:53:13.936Z,98180.59
2023-04-20T01:55:41.388Z,98185.94
2023-04-20T02:00:41.212Z,98164.81
2023-04-20T02:03:08.084Z,98171.06
2023-04-20T02:05:34.859Z,98172.25
2023-04-20T02:08:01.512Z,98165.69
2023-04-20T02:10:28.212Z,98163.84
2023-04-20T02:12:54.810Z,98159.41
2023-04-20T02:15:21.564Z,98171.66
2023-04-20T02:17:52.509Z,98158.81
2023-04-20T02:20:22.522Z,98160.31
2023-04-20T02:22:49.111Z,98161.22
2023-04-20T02:25:15.904Z,98153.78
2023-04-20T02:27:42.830Z,98148.38
2023-04-20T02:30:10.701Z,98153.47
2023-04-20T02:32:37.480Z,98152.41
2023-04-20T02:35:05.209Z,98152.97
2023-04-20T02:37:32.411Z,98148.78
2023-04-20T02:39:59.093Z,98143.00
2023-04-20T02:42:25.790Z,98138.59
2023-04-20T02:44:53.021Z,98141.97
2023-04-20T02:47:19.909Z,98139.31
2023-04-20T02:49:47.548Z,98142.13
2023-04-20T02:52:14.608Z,98148.34
2023-04-20T02:54:41.401Z,98144.97
2023-04-20T02:57:08.121Z,98134.03
2023-04-20T02:59:34.923Z,98133.00
2023-04-20T03:02:01.736Z,98121.03
2023-04-20T03:04:28.668Z,98128.78
2023-04-20T03:06:55.490Z,98123.06
2023-04-20T03:09:22.265Z,98130.28
2023-04-20T03:11:49.624Z,98123.69
2023-04-20T03:14:16.639Z,98114.50
2023-04-20T03:16:43.664Z,98119.69
2023-04-20T03:19:10.507Z,98122.81
2023-04-20T03:21:37.145Z,98112.50
2023-04-20T03:24:04.156Z,98115.00
2023-04-20T03:26:30.954Z,98115.66
2023-04-20T03:28:57.633Z,98121.78
2023-04-20T03:31:24.481Z,98112.81
2023-04-20T03:33:51.217Z,98109.22
2023-04-20T03:36:17.842Z,98114.56
2023-04-20T03:38:44.585Z,98114.91
2023-04-20T03:41:11.234Z,98113.31
2023-04-20T03:43:37.919Z,98114.03
2023-04-20T03:46:04.648Z,98111.38
2023-04-20T03:48:31.411Z,98105.44
2023-04-20T03:50:59.147Z,98106.44
2023-04-20T03:53:26.432Z,98107.25
2023-04-20T03:55:53.150Z,98102.19
2023-04-20T03:58:19.820Z,98092.63
2023-04-20T04:00:46.574Z,98092.19
2023-04-20T04:03:13.595Z,98089.19
2023-04-20T04:05:43.116Z,98092.63
2023-04-20T04:08:09.787Z,98090.75
2023-04-20T04:10:36.491Z,98092.34
2023-04-20T04:13:03.137Z,98095.81
2023-04-20T04:15:29.808Z,98092.91
2023-04-20T04:17:56.656Z,98091.88
2023-04-20T04:20:23.346Z,98092.25
2023-04-20T04:22:49.992Z,98097.91
2023-04-20T04:25:17.708Z,98093.91
2023-04-20T04:27:46.643Z,98102.66
2023-04-20T04:32:46.925Z,98094.53
2023-04-20T04:37:47.727Z,98090.13
2023-04-20T04:40:14.468Z,98092.38
2023-04-20T04:42:41.098Z,98091.72
2023-04-20T04:45:10.572Z,98089.84
2023-04-20T04:47:37.692Z,98096.19
2023-04-20T04:50:06.214Z,98092.38
2023-04-20T04:52:33.587Z,98092.09
2023-04-20T04:55:00.283Z,98091.94
2023-04-20T04:57:27.402Z,98091.78
2023-04-20T04:59:54.309Z,98088.00
2023-04-20T05:02:21.097Z,98088.63
2023-04-20T05:04:47.973Z,98088.94
2023-04-20T05:07:15.417Z,98094.63
2023-04-20T05:09:42.101Z,98089.63
2023-04-20T05:12:09.148Z,98097.13
2023-04-20T05:14:35.962Z,98100.81
2023-04-20T05:17:02.699Z,98104.25
2023-04-20T05:19:29.424Z,98098.16
2023-04-20T05:21:56.264Z,98098.22
2023-04-20T05:24:22.936Z,98101.66
2023-04-20T05:26:49.565Z,98097.84
2023-04-20T05:29:17.148Z,98101.69
2023-04-20T05:31:45.269Z,98109.00
2023-04-20T05:34:12.176Z,98095.25
2023-04-20T05:36:40.479Z,98100.16
2023-04-20T05:39:07.133Z,98092.09
2023-04-20T05:41:33.773Z,98089.28
2023-04-20T05:44:00.366Z,98093.84
2023-04-20T05:48:58.275Z,98104.66
2023-04-20T05:54:01.890Z,98099.94
2023-04-20T05:56:28.626Z,98088.31
2023-04-20T05:58:56.581Z,98101.78
2023-04-20T06:01:23.303Z,98096.25
2023-04-20T06:06:23.205Z,98097.91
2023-04-20T06:08:51.132Z,98097.56
2023-04-20T06:11:18.082Z,98089.75
2023-04-20T06:13:44.841Z,98089.41
2023-04-20T06:16:11.515Z,98085.81
2023-04-20T06:18:38.269Z,98093.53
2023-04-20T06:21:04.924Z,98089.81
2023-04-20T06:23:31.636Z,98090.59
2023-04-20T06:25:58.234Z,98094.00
2023-04-20T06:28:24.949Z,98088.00
2023-04-20T06:30:51.757Z,98084.63
2023-04-20T06:33:18.498Z,98078.50
2023-04-20T06:35:45.251Z,98073.66
2023-04-20T06:38:11.894Z,98069.81
2023-04-20T06:40:38.634Z,98071.09
2023-04-20T06:43:05.414Z,98072.84
2023-04-20T06:45:33.978Z,98066.63
2023-04-20T06:48:00.944Z,98069.69
2023-04-20T06:50:27.696Z,98070.38
2023-04-20T06:52:54.389Z,98071.66
2023-04-20T06:55:21.544Z,98077.53
2023-04-20T06:57:48.327Z,98074.03
2023-04-20T07:00:15.590Z,98077.78
2023-04-20T07:02:46.919Z,98069.28
2023-04-20T07:05:14.813Z,98076.94
2023-04-20T07:07:42.060Z,98075.97
2023-04-20T07:10:10.301Z,98069.97
2023-04-20T07:12:37.833Z,98074.28
2023-04-20T07:15:05.712Z,98059.50
2023-04-20T07:17:32.850Z,98059.72
2023-04-20T07:20:07.445Z,98063.75
2023-04-20T07:22:35.137Z,98066.69
2023-04-20T07:25:03.289Z,98062.06
2023-04-20T07:27:31.082Z,98065.41
2023-04-20T07:29:58.917Z,98064.56
2023-04-20T07:32:25.803Z,98065.84
2023-04-20T07:34:52.560Z,98058.66
2023-04-20T07:39:53.937Z,98067.31
2023-04-20T07:42:21.676Z,98055.69
2023-04-20T07:44:48.832Z,98060.84
2023-04-20T07:47:15.679Z,98064.47
2023-04-20T07:49:43.388Z,98061.84
2023-04-20T07:52:16.947Z,98058.44
2023-04-20T07:54:45.097Z,98064.44
2023-04-20T07:57:11.787Z,98061.31
2023-04-20T07:59:39.605Z,98064.31
2023-04-20T08:02:06.875Z,98062.97
2023-04-20T08:04:33.798Z,98056.56
2023-04-20T08:07:01.124Z,98070.25
2023-04-20T08:09:28.661Z,98063.59
2023-04-20T08:11:56.615Z,98062.25
2023-04-20T08:14:23.378Z,98067.53
2023-04-20T08:16:50.023Z,98063.22
2023-04-20T08:19:16.662Z,98045.06
2023-04-20T08:21:43.337Z,98048.19
2023-04-20T08:24:10.517Z,98056.53
2023-04-20T08:26:37.386Z,98047.53
2023-04-20T08:29:05.217Z,98050.75
2023-04-20T08:31:32.729Z,98048.22
2023-04-20T08:33:59.710Z,98053.47
2023-04-20T08:36:26.886Z,98051.28
2023-04-20T08:39:15.024Z,98054.97
2023-04-20T08:41:41.897Z,98058.06
2023-04-20T08:44:08.832Z,98051.16
2023-04-20T08:46:37.707Z,98049.66
2023-04-20T08:49:04.471Z,98050.94
2023-04-20T08:51:32.852Z,98048.94
2023-04-20T08:54:08.818Z,98038.44
2023-04-20T08:56:37.253Z,98041.97
2023-04-20T08:59:05.629Z,98042.47
2023-04-20T09:01:36.133Z,98043.19
2023-04-20T09:04:15.172Z,98042.56
2023-04-20T09:06:52.879Z,98047.66
2023-04-20T09:09:20.938Z,98050.25
2023-04-20T09:11:48.078Z,98049.63
2023-04-20T09:14:16.926Z,98037.09
2023-04-20T09:16:54.476Z,98036.81
2023-04-20T09:19:25.133Z,98045.81
2023-04-20T09:21:54.166Z,98031.47
2023-04-20T09:24:22.295Z,98035.94
2023-04-20T09:26:49.242Z,98034.19
2023-04-20T09:31:52.971Z,98028.31
2023-04-20T09:34:20.786Z,98031.78
2023-04-20T09:36:54.472Z,98025.47
2023-04-20T09:39:23.381Z,98026.63
2023-04-20T09:41:51.970Z,98031.13
2023-04-20T09:44:19.695Z,98027.38
2023-04-20T09:46:47.198Z,98024.94
2023-04-20T09:49:15.037Z,98021.22
2023-04-20T09:51:46.387Z,98014.91
2023-04-20T09:54:14.359Z,98017.56
2023-04-20T09:56:41.753Z,98012.56
2023-04-20T09:59:08.841Z,98022.91
2023-04-20T10:01:38.377Z,98025.16
2023-04-20T10:04:11.156Z,98022.16
2023-04-20T10:06:38.810Z,98025.44
2023-04-20T10:09:08.154Z,98015.53
2023-04-20T10:11:52.399Z,98017.03
2023-04-20T10:14:24.762Z,98017.22
2023-04-20T10:17:09.143Z,98018.84
2023-04-20T10:22:30.998Z,98010.97
2023-04-20T10:24:57.593Z,98015.13
2023-04-20T10:27:24.282Z,98013.19
2023-04-20T10:29:51.050Z,98010.91
2023-04-20T10:32:28.310Z,98003.44
2023-04-20T10:35:14.041Z,97997.72
2023-04-20T10:37:50.998Z,97998.09
2023-04-20T10:40:25.501Z,97994.94
2023-04-20T10:42:52.111Z,98001.44
2023-04-20T10:45:18.904Z,97990.44
2023-04-20T10:47:45.841Z,97990.00
2023-04-20T10:50:14.969Z,97988.84
2023-04-20T10:52:43.246Z,97977.47
2023-04-20T10:55:39.076Z,97972.19
2023-04-20T10:58:06.028Z,97963.16
2023-04-20T11:00:32.875Z,97967.81
2023-04-20T11:02:59.633Z,97963.94
2023-04-20T11:05:27.722Z,97957.50
2023-04-20T11:07:55.143Z,97952.59
2023-04-20T11:10:24.770Z,97949.81
2023-04-20T11:15:33.828Z,97923.34
2023-04-20T11:18:12.217Z,97929.69
2023-04-20T11:20:51.352Z,97930.16
2023-04-20T11:23:23.505Z,97918.13
2023-04-20T11:25:54.560Z,97915.31
2023-04-20T11:28:21.690Z,97904.28
2023-04-20T11:30:49.982Z,97901.59
2023-04-20T11:33:29.441Z,97897.16
2023-04-20T11:35:59.457Z,97896.28
2023-04-20T11:41:08.032Z,97905.22
2023-04-20T11:43:36.526Z,97904.03
2023-04-20T11:46:03.548Z,97904.19
2023-04-20T11:48:33.215Z,97902.19
2023-04-20T11:50:59.914Z,97900.38
2023-04-20T11:53:27.009Z,97905.59
2023-04-20T11:55:53.635Z,97908.63
2023-04-20T11:58:20.296Z,97916.31
2023-04-20T12:00:46.952Z,97921.22
2023-04-20T12:05:44.851Z,97924.03
2023-04-20T12:08:11.612Z,97919.63
2023-04-20T12:10:40.190Z,97917.13
2023-04-20T12:13:06.956Z,97928.88
2023-04-20T12:15:33.621Z,97920.47
2023-04-20T12:18:00.405Z,97923.53
2023-04-20T12:20:27.112Z,97921.50
2023-04-20T12:22:53.774Z,97932.66
2023-04-20T12:25:20.453Z,97929.31
2023-04-20T12:27:48.206Z,97925.53
2023-04-20T12:30:16.877Z,97917.44
2023-04-20T12:32:43.527Z,97927.59
2023-04-20T12:35:10.503Z,97919.84
2023-04-20T12:37:37.228Z,97907.97
2023-04-20T12:40:06.582Z,97907.25
2023-04-20T12:42:33.407Z,97917.03
2023-04-20T12:45:00.128Z,97916.72
2023-04-20T12:47:27.124Z,97909.59
2023-04-20T12:49:54.840Z,97914.97
2023-04-20T12:52:21.724Z,97914.19
2023-04-20T12:54:48.378Z,97908.84
2023-04-20T12:57:15.070Z,97910.41
2023-04-20T12:59:42.042Z,97900.97
2023-04-20T13:04:40.131Z,97906.91
2023-04-20T13:07:07.349Z,97896.47
2023-04-20T13:09:34.023Z,97910.31
2023-04-20T13:12:00.728Z,97899.91
2023-04-20T13:14:27.429Z,97895.25
2023-04-20T13:16:55.454Z,97900.16
2023-04-20T13:19:22.448Z,97903.72
2023-04-20T13:21:49.113Z,97898.47
2023-04-20T13:24:16.227Z,97899.81
2023-04-20T13:26:43.055Z,97903.09
2023-04-20T13:29:09.647Z,97902.44
2023-04-20T13:31:37.367Z,97902.34
2023-04-20T13:34:04.135Z,97914.53
2023-04-20T13:36:31.740Z,97901.59
2023-04-20T13:38:58.680Z,97897.34
2023-04-20T13:41:25.833Z,97896.94
2023-04-20T13:43:52.487Z,97896.63
2023-04-20T13:46:20.262Z,97886.28
2023-04-20T13:48:47.250Z,97884.00
2023-04-20T13:51:13.986Z,97888.72
2023-04-20T13:53:40.763Z,97888.63
2023-04-20T13:56:07.644Z,97892.56
2023-04-20T13:58:34.311Z,97889.47
2023-04-20T14:01:00.959Z,97890.69
2023-04-20T14:03:27.812Z,97880.94
2023-04-20T14:05:54.836Z,97881.81
2023-04-20T14:08:23.525Z,97875.81
2023-04-20T14:10:50.241Z,97882.13
2023-04-20T14:13:16.955Z,97878.69
2023-04-20T14:15:43.683Z,97885.25
2023-04-20T14:18:10.530Z,97880.03
2023-04-20T14:20:37.280Z,97867.78
2023-04-20T14:23:03.977Z,97878.53
2023-04-20T14:25:30.713Z,97872.59
2023-04-20T14:27:57.513Z,97874.00
2023-04-20T14:30:24.260Z,97876.41
2023-04-20T14:32:58.583Z,97869.31
2023-04-20T14:35:27.093Z,97873.84
2023-04-20T14:37:54.066Z,97884.72
2023-04-20T14:40:21.106Z,97890.81
2023-04-20T14:42:47.999Z,97889.31
2023-04-20T14:45:14.662Z,97903.28
2023-04-20T14:47:41.443Z,97890.78
2023-04-20T14:50:09.574Z,97896.09
2023-04-20T14:52:36.617Z,97901.59
2023-04-20T14:55:04.435Z,97897.25
2023-04-20T15:00:06.667Z,97901.75
2023-04-20T15:02:33.466Z,97896.78
2023-04-20T15:05:01.164Z,97892.34
2023-04-20T15:07:28.685Z,97904.38
2023-04-20T15:09:55.566Z,97910.81
2023-04-20T15:12:22.384Z,97898.44
2023-04-20T15:14:49.000Z,97906.31
2023-04-20T15:17:16.017Z,97906.09
2023-04-20T15:19:46.186Z,97903.09
2023-04-20T15:22:13.717Z,97908.94
2023-04-20T15:24:40.938Z,97899.25
2023-04-20T15:27:08.160Z,97904.31
2023-04-20T15:29:34.891Z,97903.97
2023-04-20T15:32:01.832Z,97903.69
2023-04-20T15:34:29.411Z,97905.53
2023-04-20T15:36:56.534Z,97906.44
2023-04-20T15:39:23.185Z,97904.06
2023-04-20T15:41:49.867Z,97898.50
2023-04-20T15:44:16.626Z,97904.84
2023-04-20T15:46:43.730Z,97901.72
2023-04-20T15:49:10.440Z,97914.81
2023-04-20T15:51:38.387Z,97916.16
2023-04-20T15:54:05.450Z,97906.00
2023-04-20T15:56:32.177Z,97912.44
2023-04-20T15:58:58.821Z,97926.09
2023-04-20T16:01:25.514Z,97913.50
2023-04-20T16:03:52.437Z,97913.88
2023-04-20T16:06:19.109Z,97918.88
2023-04-20T16:08:45.986Z,97915.00
2023-04-20T16:11:12.604Z,97911.47
2023-04-20T16:13:39.239Z,97904.72
2023-04-20T16:16:06.164Z,97915.63
2023-04-20T16:18:33.211Z,97905.84
2023-04-20T16:20:59.846Z,97906.97
2023-04-20T16:23:26.661Z,97906.69
2023-04-20T16:28:31.846Z,97906.50
2023-04-20T16:30:59.107Z,97909.75
2023-04-20T16:33:26.283Z,97914.47
2023-04-20T16:38:24.282Z,97903.72
2023-04-20T16:40:51.087Z,97908.03
2023-04-20T16:43:17.771Z,97900.00
2023-04-20T16:45:44.452Z,97891.72
2023-04-20T16:48:11.162Z,97886.94
2023-04-20T16:50:40.202Z,97886.69
2023-04-20T16:58:17.490Z,97887.47
2023-04-20T17:00:44.132Z,97897.91
2023-04-20T17:03:13.854Z,97911.75
2023-04-20T17:05:42.256Z,97909.88
2023-04-20T17:08:10.552Z,97919.31
2023-04-20T17:10:38.632Z,97921.38
2023-04-20T17:13:05.478Z,97942.34
2023-04-20T17:15:32.261Z,97957.88
2023-04-20T17:17:59.643Z,97957.66
2023-04-20T17:20:26.494Z,97963.25
2023-04-20T17:22:53.156Z,97960.09
2023-04-20T17:25:19.901Z,97967.03
2023-04-20T17:30:18.295Z,97962.25
2023-04-20T17:32:44.912Z,97960.09
2023-04-20T17:35:11.637Z,97959.94
2023-04-20T17:37:38.403Z,97952.50
2023-04-20T17:40:06.494Z,97949.28
2023-04-20T17:42:33.299Z,97949.66
2023-04-20T17:44:59.987Z,97950.53
2023-04-20T17:47:28.626Z,97956.59
2023-04-20T17:49:55.701Z,97954.69
2023-04-20T17:52:22.496Z,97953.09
2023-04-20T17:54:49.182Z,97946.66
2023-04-20T17:57:15.786Z,97937.72
2023-04-20T17:59:43.238Z,97949.81
2023-04-20T18:02:10.054Z,97958.09
2023-04-20T18:04:36.922Z,97961.13
2023-04-20T18:07:04.127Z,97961.97
2023-04-20T18:12:02.953Z,97961.69
2023-04-20T18:14:29.606Z,97955.19
2023-04-20T18:16:56.937Z,97944.91
2023-04-20T18:19:23.566Z,97963.59
2023-04-20T18:21:50.245Z,97960.41
2023-04-20T18:24:17.146Z,97961.84
2023-04-20T18:26:44.109Z,97956.97
2023-04-20T18:31:47.692Z,97961.31
2023-04-20T18:34:15.917Z,97959.97
2023-04-20T18:36:42.732Z,97959.81
2023-04-20T18:41:41.462Z,97970.63
2023-04-20T18:44:08.221Z,97977.22
2023-04-20T18:46:35.067Z,97987.63
2023-04-20T18:49:01.775Z,97988.72
2023-04-20T18:51:28.813Z,97984.88
2023-04-20T18:53:55.470Z,97975.28
2023-04-20T18:56:22.139Z,97972.47
2023-04-20T18:58:48.813Z,97964.22
2023-04-20T19:01:15.676Z,97955.44
2023-04-20T19:03:45.542Z,97959.28
2023-04-20T19:06:14.414Z,97951.44
2023-04-20T19:11:12.357Z,97953.94
2023-04-20T19:13:44.604Z,97957.66
2023-04-20T19:16:14.086Z,97966.53
2023-04-20T19:18:40.914Z,97967.41
2023-04-20T19:21:07.793Z,97964.03
2023-04-20T19:23:35.950Z,97963.97
2023-04-20T19:26:03.067Z,97971.44
2023-04-20T19:28:30.521Z,97967.69
2023-04-20T19:33:33.156Z,97979.25
2023-04-20T19:36:00.858Z,97990.41
2023-04-20T19:38:31.206Z,98009.25
2023-04-20T19:40:57.876Z,98015.13
2023-04-20T19:43:24.557Z,98022.72
2023-04-20T19:48:25.176Z,98022.47
2023-04-20T19:50:52.211Z,98022.56
2023-04-20T19:53:21.745Z,98010.84
2023-04-20T19:55:48.423Z,98001.22
2023-04-20T19:58:15.121Z,98023.53
2023-04-20T20:00:41.788Z,98016.28
2023-04-20T20:03:08.558Z,98003.47
2023-04-20T20:05:35.367Z,97993.91
2023-04-20T20:08:02.165Z,98000.75
2023-04-20T20:10:28.965Z,98002.34
2023-04-20T20:13:14.471Z,98013.88
2023-04-20T20:15:41.192Z,98021.75
2023-04-20T20:18:07.907Z,98019.31
2023-04-20T20:20:34.748Z,98015.38
2023-04-20T20:23:01.516Z,98021.16
2023-04-20T20:25:28.187Z,98010.84
2023-04-20T20:27:54.918Z,98011.66
2023-04-20T20:30:21.958Z,98001.91
2023-04-20T20:32:48.680Z,98004.97
2023-04-20T20:35:15.526Z,97997.91
2023-04-20T20:37:42.659Z,98008.53
2023-04-20T20:40:15.244Z,98017.06
2023-04-20T20:42:43.143Z,98022.97
2023-04-20T20:45:12.656Z,98017.34
2023-04-20T20:47:41.306Z,98016.09
2023-04-20T20:50:09.516Z,98014.97
2023-04-20T20:52:36.309Z,98014.44
2023-04-20T20:55:03.423Z,98014.63
2023-04-20T20:57:30.462Z,98009.84
2023-04-20T20:59:57.121Z,98008.88
2023-04-20T21:02:23.854Z,98006.31
2023-04-20T21:04:50.812Z,98005.78
2023-04-20T21:07:17.517Z,97999.91
2023-04-20T21:09:44.193Z,97999.75
2023-04-20T21:12:11.016Z,98002.56
2023-04-20T21:14:37.696Z,97996.69
2023-04-20T21:17:05.059Z,97992.59
2023-04-20T21:22:05.771Z,97982.44
2023-04-20T21:24:32.453Z,97988.13
2023-04-20T21:26:59.239Z,97983.63
2023-04-20T21:29:25.973Z,97988.13
2023-04-20T21:31:52.648Z,97984.19
2023-04-20T21:34:19.318Z,97979.28
2023-04-20T21:36:46.095Z,97991.25
2023-04-20T21:39:12.745Z,97991.34
2023-04-20T21:41:39.370Z,97989.94
2023-04-20T21:44:06.172Z,97990.03
2023-04-20T21:46:33.389Z,97983.81
2023-04-20T21:49:00.179Z,97988.41
2023-04-20T21:51:27.890Z,97995.97
2023-04-20T21:53:54.598Z,97987.75
2023-04-20T21:56:21.456Z,97985.06
2023-04-20T21:58:48.152Z,97988.47
2023-04-20T22:01:14.841Z,97986.09
2023-04-20T22:03:41.733Z,97986.97
2023-04-20T22:06:08.865Z,97983.50
2023-04-20T22:08:39.844Z,97981.19
2023-04-20T22:13:45.516Z,97986.59
2023-04-20T22:16:12.179Z,97982.25
2023-04-20T22:18:38.810Z,97973.84
2023-04-20T22:21:05.534Z,97982.06
2023-04-20T22:23:32.196Z,97978.13
2023-04-20T22:25:58.811Z,97975.16
2023-04-20T22:28:25.464Z,97987.75
2023-04-20T22:30:52.116Z,97985.03
2023-04-20T22:33:19.091Z,97994.31
2023-04-20T22:35:46.008Z,97990.53
2023-04-20T22:38:12.724Z,97984.75
2023-04-20T22:40:39.373Z,97996.34
2023-04-20T22:43:06.068Z,98000.97
2023-04-20T22:45:32.712Z,98005.50
2023-04-20T22:47:59.458Z,98006.03
2023-04-20T22:50:26.158Z,98012.25
2023-04-20T22:52:52.816Z,98020.00
2023-04-20T22:55:19.519Z,98018.91
2023-04-20T22:57:46.232Z,98025.84
2023-04-20T23:00:14.031Z,98023.59
2023-04-20T23:02:41.375Z,98026.22
2023-04-20T23:07:41.686Z,98020.00
2023-04-20T23:10:09.308Z,98013.59
2023-04-20T23:12:35.909Z,98021.13
2023-04-20T23:15:02.545Z,98023.47
2023-04-20T23:17:29.335Z,98016.41
2023-04-20T23:22:28.181Z,98011.06
2023-04-20T23:24:57.491Z,98014.47
2023-04-20T23:27:24.208Z,98012.75
2023-04-20T23:29:51.150Z,98009.97
2023-04-20T23:32:17.784Z,98011.28
2023-04-20T23:34:44.461Z,97999.75
2023-04-20T23:37:11.582Z,97997.47
2023-04-20T23:39:38.472Z,98008.00
2023-04-20T23:42:05.720Z,97998.13
2023-04-20T23:44:32.483Z,98001.53
2023-04-20T23:46:59.149Z,98002.00
2023-04-20T23:49:25.847Z,97988.75
2023-04-20T23:51:52.485Z,97992.72
2023-04-20T23:54:19.101Z,97988.28
2023-04-20T23:56:45.783Z,97990.63
2023-04-20T23:59:12.452Z,97984.59
